Classifiche di sempre
Migliori tempi personali validi di team tra tutti gli eventi e le stagioni. Ogni team compare una sola volta per divisione.
Cerca per nome e apri la pagina in cui è classificato questo record di divisione.
139,647 team in classifica
| Pos. | Pos. AG | Team | Nazionalità | Categoria età | TempoMiglior tempo | Distacco |
|---|---|---|---|---|---|---|
| 137701 | #432 | Dinah Erdmann & Gely SzymiczekGER · W 40-49 · AG #432 | GER | W 40-49 | 2:10:20 | +76:59 |
| 137702 | #4691 | Sasitorn Prasantanakorn & Kamolratana KongtaphanTHA · W 45-49 · AG #4691 | THA | W 45-49 | 2:10:20 | +76:59 |
| 137703 | #4692 | Daphne Tay & Eve AngSIN · W 45-49 · AG #4692 | SIN | W 45-49 | 2:10:20 | +76:59 |
| 137704 | #43352 | Marina Mcgill & Katie BoydIRL · W 30-34 · AG #43352 | IRL | W 30-34 | 2:10:21 | +77:00 |
| 137705 | #15263 | Michelle Le Roux & Melandi Le RouxRSA · W 35-39 · AG #15263 | RSA | W 35-39 | 2:10:21 | +77:00 |
| 137706 | -- | Bárbara Galvez & Bárbara GalvezMEX · W WU29 | MEX | W WU29 | 2:10:21 | +77:00 |
| 137707 | #19678 | Andrea Vrionis & Georgia VrionisUSA · W 40-44 · AG #19678 | USA | W 40-44 | 2:10:21 | +77:00 |
| 137708 | #11289 | Mya Simard & Alexa TorresUSA · W 16-24 · AG #11289 | USA | W 16-24 | 2:10:21 | +77:00 |
| 137709 | #4693 | Margaret Rose Lester & Camilla Ann EdwardesRSA · W 45-49 · AG #4693 | RSA | W 45-49 | 2:10:22 | +77:01 |
| 137710 | -- | Chiara Boetto & Sara MusuracaITA · W WU29 | ITA | W WU29 | 2:10:22 | +77:01 |
| 137711 | #4694 | Norma Angélica Granados Matías & Marisol Granados MatíasMEX · W 45-49 · AG #4694 | MEX | W 45-49 | 2:10:22 | +77:01 |
| 137712 | #11290 | Jahnvi Chabria & Shreya MakhijaIND · W 16-24 · AG #11290 | IND | W 16-24 | 2:10:22 | +77:01 |
| 137713 | #43353 | Maxim Plessa & Lieke VersteegenNED · W 30-34 · AG #43353 | NED | W 30-34 | 2:10:23 | +77:02 |
| 137714 | #43354 | Amelia Karayianis & Yasmin WillisUSA · W 30-34 · AG #43354 | USA | W 30-34 | 2:10:24 | +77:03 |
| 137715 | #43355 | Natalia Maca LATOURRETTE & Ashley HYDEW 30-34 · AG #43355 | -- | W 30-34 | 2:10:24 | +77:03 |
| 137716 | #19680 | Devijaya Nair & Raquel LacdangHKG · W 40-44 · AG #19680 | HKG | W 40-44 | 2:10:24 | +77:03 |
| 137717 | #20521 | Chawisa Maard & Supichaya NoisriTHA · W 25-29 · AG #20521 | THA | W 25-29 | 2:10:24 | +77:03 |
| 137718 | #15264 | Kamini Shivalkar & Viminya DossIND · W 35-39 · AG #15264 | IND | W 35-39 | 2:10:24 | +77:03 |
| 137719 | #19681 | Sundee Corley & Shianne CorleyUSA · W 40-44 · AG #19681 | USA | W 40-44 | 2:10:25 | +77:04 |
| 137720 | #4695 | Monica Cristina Manganelli Van Der Der & Arleth Carrillo RiojaW 45-49 · AG #4695 | -- | W 45-49 | 2:10:25 | +77:04 |
| 137721 | #43357 | María Moya Alamar & Alba García CortésESP · W 30-34 · AG #43357 | ESP | W 30-34 | 2:10:25 | +77:04 |
| 137722 | #43358 | Leanne Quinn & Donna QuinnIRL · W 30-34 · AG #43358 | IRL | W 30-34 | 2:10:25 | +77:04 |
| 137723 | #236 | Theresa Jensen & Annette RamirezUSA · W 60-64 · AG #236 | USA | W 60-64 | 2:10:25 | +77:04 |
| 137724 | #4696 | Xin Lan Lee & Su Ching LanTPE · W 45-49 · AG #4696 | TPE | W 45-49 | 2:10:25 | +77:04 |
| 137725 | #3289 | Jennifer Ramirez & Jennifer CordovaUSA · W 50-54 · AG #3289 | USA | W 50-54 | 2:10:26 | +77:05 |
Pagina 5,509 di 5,586